Terminal Aerodrome Forecast
Issued by NWS Blacksburg, VA

Home | Current Version | Previous Version | Text Only | Print | Product List | Glossary On
Versions: 1 2 3 4 5 6 7 8 9 10 11 12 13 14 15 16 17 18 19 20 21 22 23 24
000
FTUS41 KRNK 040520
TAFLYH
TAF
KLYH 040520Z 0406/0506 00000KT P6SM OVC200
     FM041100 11003KT P6SM OVC100
     FM042200 12004KT P6SM -RA SCT030 OVC050
     FM050100 14005KT 5SM -RA BR OVC015=

USA.gov is the U.S. government's official web portal to all federal, state and local government web resources and services.